sensor_id;sensor_type;location;lat;lon;timestamp;P1;durP1;ratioP1;P2;durP2;ratioP2
980;SDS011;479;53.514;9.994;2024-01-11T00:01:48;18.17;;;10.80;;
980;SDS011;479;53.514;9.994;2024-01-11T00:04:15;17.83;;;10.40;;
980;SDS011;479;53.514;9.994;2024-01-11T00:06:42;18.95;;;11.15;;
980;SDS011;479;53.514;9.994;2024-01-11T00:09:10;16.02;;;9.00;;
980;SDS011;479;53.514;9.994;2024-01-11T00:11:36;17.25;;;9.68;;
980;SDS011;479;53.514;9.994;2024-01-11T00:14:03;12.18;;;8.75;;
980;SDS011;479;53.514;9.994;2024-01-11T00:16:32;16.17;;;9.43;;
980;SDS011;479;53.514;9.994;2024-01-11T00:18:59;14.25;;;10.48;;
980;SDS011;479;53.514;9.994;2024-01-11T00:21:26;14.32;;;7.75;;
980;SDS011;479;53.514;9.994;2024-01-11T00:23:53;15.90;;;7.95;;
980;SDS011;479;53.514;9.994;2024-01-11T00:26:20;12.30;;;7.65;;
980;SDS011;479;53.514;9.994;2024-01-11T00:28:47;20.08;;;9.90;;
980;SDS011;479;53.514;9.994;2024-01-11T00:31:14;19.27;;;8.40;;
980;SDS011;479;53.514;9.994;2024-01-11T00:33:42;12.60;;;8.40;;
980;SDS011;479;53.514;9.994;2024-01-11T00:36:09;19.08;;;11.88;;
980;SDS011;479;53.514;9.994;2024-01-11T00:38:36;15.45;;;7.50;;
980;SDS011;479;53.514;9.994;2024-01-11T00:41:03;13.30;;;7.07;;
980;SDS011;479;53.514;9.994;2024-01-11T00:43:30;13.60;;;8.18;;
980;SDS011;479;53.514;9.994;2024-01-11T00:45:57;12.48;;;8.70;;
980;SDS011;479;53.514;9.994;2024-01-11T00:48:24;15.52;;;8.38;;
980;SDS011;479;53.514;9.994;2024-01-11T00:50:52;18.73;;;9.43;;
980;SDS011;479;53.514;9.994;2024-01-11T00:53:19;22.88;;;13.00;;
980;SDS011;479;53.514;9.994;2024-01-11T00:55:46;16.80;;;9.20;;
980;SDS011;479;53.514;9.994;2024-01-11T00:58:13;16.35;;;10.07;;
980;SDS011;479;53.514;9.994;2024-01-11T01:00:40;18.58;;;10.15;;
980;SDS011;479;53.514;9.994;2024-01-11T01:03:07;16.38;;;9.57;;
980;SDS011;479;53.514;9.994;2024-01-11T01:05:34;13.77;;;9.98;;
980;SDS011;479;53.514;9.994;2024-01-11T01:08:02;13.27;;;8.02;;
980;SDS011;479;53.514;9.994;2024-01-11T01:10:29;11.75;;;8.50;;
980;SDS011;479;53.514;9.994;2024-01-11T01:12:56;11.30;;;8.10;;
980;SDS011;479;53.514;9.994;2024-01-11T01:15:23;12.63;;;7.85;;
980;SDS011;479;53.514;9.994;2024-01-11T01:17:50;14.75;;;8.60;;
980;SDS011;479;53.514;9.994;2024-01-11T01:20:17;14.45;;;9.27;;
980;SDS011;479;53.514;9.994;2024-01-11T01:22:44;14.25;;;8.43;;
980;SDS011;479;53.514;9.994;2024-01-11T01:25:12;14.57;;;9.73;;
980;SDS011;479;53.514;9.994;2024-01-11T01:27:39;17.55;;;9.80;;
980;SDS011;479;53.514;9.994;2024-01-11T01:30:06;11.40;;;7.85;;
980;SDS011;479;53.514;9.994;2024-01-11T01:32:34;22.30;;;9.80;;
980;SDS011;479;53.514;9.994;2024-01-11T01:35:01;12.85;;;7.43;;
980;SDS011;479;53.514;9.994;2024-01-11T01:37:28;13.07;;;7.82;;
980;SDS011;479;53.514;9.994;2024-01-11T01:39:55;10.82;;;7.70;;
980;SDS011;479;53.514;9.994;2024-01-11T01:42:23;12.40;;;7.65;;
980;SDS011;479;53.514;9.994;2024-01-11T01:44:50;13.32;;;8.80;;
980;SDS011;479;53.514;9.994;2024-01-11T01:47:17;13.00;;;9.45;;
980;SDS011;479;53.514;9.994;2024-01-11T01:49:44;16.17;;;9.05;;
980;SDS011;479;53.514;9.994;2024-01-11T01:52:14;15.13;;;9.20;;
980;SDS011;479;53.514;9.994;2024-01-11T01:54:42;14.27;;;9.07;;
980;SDS011;479;53.514;9.994;2024-01-11T01:57:09;15.77;;;8.63;;
980;SDS011;479;53.514;9.994;2024-01-11T01:59:39;15.27;;;9.15;;
980;SDS011;479;53.514;9.994;2024-01-11T02:02:06;12.93;;;9.35;;
980;SDS011;479;53.514;9.994;2024-01-11T02:04:33;13.25;;;9.05;;
980;SDS011;479;53.514;9.994;2024-01-11T02:07:01;14.30;;;8.43;;
980;SDS011;479;53.514;9.994;2024-01-11T02:09:29;11.90;;;7.65;;
980;SDS011;479;53.514;9.994;2024-01-11T02:11:57;16.15;;;8.55;;
980;SDS011;479;53.514;9.994;2024-01-11T02:14:25;12.82;;;7.45;;
980;SDS011;479;53.514;9.994;2024-01-11T02:16:54;17.17;;;9.55;;
980;SDS011;479;53.514;9.994;2024-01-11T02:19:20;18.38;;;10.38;;
980;SDS011;479;53.514;9.994;2024-01-11T02:21:48;14.57;;;8.98;;
980;SDS011;479;53.514;9.994;2024-01-11T02:24:21;17.35;;;9.05;;
980;SDS011;479;53.514;9.994;2024-01-11T02:26:57;12.48;;;7.53;;
980;SDS011;479;53.514;9.994;2024-01-11T02:29:25;17.17;;;8.65;;
980;SDS011;479;53.514;9.994;2024-01-11T02:31:53;19.60;;;9.27;;
980;SDS011;479;53.514;9.994;2024-01-11T02:34:20;9.43;;;6.72;;
980;SDS011;479;53.514;9.994;2024-01-11T02:36:49;14.63;;;7.90;;
980;SDS011;479;53.514;9.994;2024-01-11T02:39:16;15.30;;;8.23;;
980;SDS011;479;53.514;9.994;2024-01-11T02:41:47;14.98;;;8.85;;
980;SDS011;479;53.514;9.994;2024-01-11T02:44:16;11.85;;;7.93;;
980;SDS011;479;53.514;9.994;2024-01-11T02:46:46;17.23;;;8.77;;
980;SDS011;479;53.514;9.994;2024-01-11T02:49:13;16.15;;;9.98;;
980;SDS011;479;53.514;9.994;2024-01-11T02:51:40;14.43;;;9.07;;
980;SDS011;479;53.514;9.994;2024-01-11T02:54:06;14.25;;;9.68;;
980;SDS011;479;53.514;9.994;2024-01-11T02:56:33;16.90;;;7.53;;
980;SDS011;479;53.514;9.994;2024-01-11T02:59:02;15.85;;;9.82;;
980;SDS011;479;53.514;9.994;2024-01-11T03:01:29;17.65;;;9.43;;
980;SDS011;479;53.514;9.994;2024-01-11T03:03:56;16.80;;;9.02;;
980;SDS011;479;53.514;9.994;2024-01-11T03:06:23;16.90;;;9.32;;
980;SDS011;479;53.514;9.994;2024-01-11T03:08:50;16.13;;;8.65;;
980;SDS011;479;53.514;9.994;2024-01-11T03:11:17;12.68;;;8.40;;
980;SDS011;479;53.514;9.994;2024-01-11T03:13:44;17.63;;;8.77;;
980;SDS011;479;53.514;9.994;2024-01-11T03:16:12;13.93;;;8.40;;
980;SDS011;479;53.514;9.994;2024-01-11T03:18:39;19.77;;;10.07;;
980;SDS011;479;53.514;9.994;2024-01-11T03:21:06;20.45;;;10.93;;
980;SDS011;479;53.514;9.994;2024-01-11T03:23:33;18.90;;;9.48;;
980;SDS011;479;53.514;9.994;2024-01-11T03:26:00;15.07;;;10.27;;
980;SDS011;479;53.514;9.994;2024-01-11T03:28:26;16.80;;;10.65;;
980;SDS011;479;53.514;9.994;2024-01-11T03:30:53;17.45;;;10.82;;
980;SDS011;479;53.514;9.994;2024-01-11T03:33:22;19.65;;;11.05;;
980;SDS011;479;53.514;9.994;2024-01-11T03:35:48;17.10;;;9.65;;
980;SDS011;479;53.514;9.994;2024-01-11T03:38:15;28.20;;;11.95;;
980;SDS011;479;53.514;9.994;2024-01-11T03:40:42;23.33;;;12.88;;
980;SDS011;479;53.514;9.994;2024-01-11T03:43:12;18.77;;;9.70;;
980;SDS011;479;53.514;9.994;2024-01-11T03:45:39;22.08;;;11.88;;
980;SDS011;479;53.514;9.994;2024-01-11T03:48:07;22.70;;;10.90;;
980;SDS011;479;53.514;9.994;2024-01-11T03:50:36;16.73;;;8.75;;
980;SDS011;479;53.514;9.994;2024-01-11T03:53:03;13.88;;;7.68;;
980;SDS011;479;53.514;9.994;2024-01-11T03:55:29;23.48;;;11.07;;
980;SDS011;479;53.514;9.994;2024-01-11T03:57:56;19.10;;;9.70;;
980;SDS011;479;53.514;9.994;2024-01-11T04:00:23;15.75;;;11.20;;
980;SDS011;479;53.514;9.994;2024-01-11T04:02:51;20.08;;;10.70;;
980;SDS011;479;53.514;9.994;2024-01-11T04:05:19;26.90;;;11.88;;
980;SDS011;479;53.514;9.994;2024-01-11T04:07:47;21.13;;;11.55;;
980;SDS011;479;53.514;9.994;2024-01-11T04:10:15;14.55;;;8.52;;
980;SDS011;479;53.514;9.994;2024-01-11T04:12:43;14.80;;;8.88;;
980;SDS011;479;53.514;9.994;2024-01-11T04:15:11;17.60;;;12.07;;
980;SDS011;479;53.514;9.994;2024-01-11T04:17:38;16.52;;;8.63;;
980;SDS011;479;53.514;9.994;2024-01-11T04:20:06;18.13;;;9.77;;
980;SDS011;479;53.514;9.994;2024-01-11T04:22:34;18.25;;;11.18;;
980;SDS011;479;53.514;9.994;2024-01-11T04:25:02;19.23;;;10.38;;
980;SDS011;479;53.514;9.994;2024-01-11T04:27:30;19.15;;;9.70;;
980;SDS011;479;53.514;9.994;2024-01-11T04:29:57;9.65;;;6.20;;
980;SDS011;479;53.514;9.994;2024-01-11T04:32:24;16.40;;;7.43;;
980;SDS011;479;53.514;9.994;2024-01-11T04:34:51;21.10;;;9.27;;
980;SDS011;479;53.514;9.994;2024-01-11T04:37:18;21.58;;;10.90;;
980;SDS011;479;53.514;9.994;2024-01-11T04:39:45;19.40;;;10.50;;
980;SDS011;479;53.514;9.994;2024-01-11T04:42:13;27.52;;;12.35;;
980;SDS011;479;53.514;9.994;2024-01-11T04:44:40;26.95;;;11.52;;
980;SDS011;479;53.514;9.994;2024-01-11T04:47:07;23.98;;;12.27;;
980;SDS011;479;53.514;9.994;2024-01-11T04:49:34;19.83;;;11.18;;
980;SDS011;479;53.514;9.994;2024-01-11T04:52:01;25.98;;;12.85;;
980;SDS011;479;53.514;9.994;2024-01-11T04:54:28;18.58;;;12.13;;
980;SDS011;479;53.514;9.994;2024-01-11T04:56:55;24.45;;;10.63;;
980;SDS011;479;53.514;9.994;2024-01-11T04:59:24;25.50;;;14.30;;
980;SDS011;479;53.514;9.994;2024-01-11T05:01:51;20.90;;;12.35;;
980;SDS011;479;53.514;9.994;2024-01-11T05:04:18;27.92;;;14.75;;
980;SDS011;479;53.514;9.994;2024-01-11T05:06:45;29.65;;;15.68;;
980;SDS011;479;53.514;9.994;2024-01-11T05:09:12;24.90;;;15.45;;
980;SDS011;479;53.514;9.994;2024-01-11T05:11:39;27.33;;;13.90;;
980;SDS011;479;53.514;9.994;2024-01-11T05:14:06;21.30;;;13.23;;
980;SDS011;479;53.514;9.994;2024-01-11T05:16:34;24.38;;;14.82;;
980;SDS011;479;53.514;9.994;2024-01-11T05:19:01;24.98;;;15.40;;
980;SDS011;479;53.514;9.994;2024-01-11T05:21:28;26.33;;;14.07;;
980;SDS011;479;53.514;9.994;2024-01-11T05:23:55;33.05;;;14.98;;
980;SDS011;479;53.514;9.994;2024-01-11T05:26:22;17.92;;;12.13;;
980;SDS011;479;53.514;9.994;2024-01-11T05:28:49;17.77;;;10.40;;
980;SDS011;479;53.514;9.994;2024-01-11T05:31:16;21.10;;;13.05;;
980;SDS011;479;53.514;9.994;2024-01-11T05:33:44;22.48;;;9.90;;
980;SDS011;479;53.514;9.994;2024-01-11T05:36:11;27.35;;;12.38;;
980;SDS011;479;53.514;9.994;2024-01-11T05:38:39;26.75;;;12.25;;
980;SDS011;479;53.514;9.994;2024-01-11T05:41:06;23.48;;;11.75;;
980;SDS011;479;53.514;9.994;2024-01-11T05:43:33;19.13;;;11.23;;
980;SDS011;479;53.514;9.994;2024-01-11T05:46:00;13.88;;;8.20;;
980;SDS011;479;53.514;9.994;2024-01-11T05:48:27;16.05;;;10.00;;
980;SDS011;479;53.514;9.994;2024-01-11T05:50:55;17.27;;;10.68;;
980;SDS011;479;53.514;9.994;2024-01-11T05:53:22;25.00;;;11.75;;
980;SDS011;479;53.514;9.994;2024-01-11T05:55:50;16.60;;;10.77;;
980;SDS011;479;53.514;9.994;2024-01-11T05:58:17;10.55;;;6.60;;
980;SDS011;479;53.514;9.994;2024-01-11T06:00:43;14.85;;;8.95;;
980;SDS011;479;53.514;9.994;2024-01-11T06:03:11;14.07;;;9.15;;
980;SDS011;479;53.514;9.994;2024-01-11T06:05:38;11.20;;;6.63;;
980;SDS011;479;53.514;9.994;2024-01-11T06:08:07;14.18;;;7.95;;
980;SDS011;479;53.514;9.994;2024-01-11T06:10:34;13.95;;;8.38;;
980;SDS011;479;53.514;9.994;2024-01-11T06:13:01;18.20;;;11.07;;
980;SDS011;479;53.514;9.994;2024-01-11T06:15:28;11.98;;;6.95;;
980;SDS011;479;53.514;9.994;2024-01-11T06:17:55;11.88;;;6.82;;
980;SDS011;479;53.514;9.994;2024-01-11T06:20:22;8.88;;;5.25;;
980;SDS011;479;53.514;9.994;2024-01-11T06:22:49;5.53;;;3.85;;
980;SDS011;479;53.514;9.994;2024-01-11T06:25:17;9.02;;;5.25;;
980;SDS011;479;53.514;9.994;2024-01-11T06:27:44;7.57;;;5.88;;
980;SDS011;479;53.514;9.994;2024-01-11T06:30:12;8.60;;;5.50;;
980;SDS011;479;53.514;9.994;2024-01-11T06:32:39;11.73;;;5.75;;
980;SDS011;479;53.514;9.994;2024-01-11T06:35:06;3.97;;;2.95;;
980;SDS011;479;53.514;9.994;2024-01-11T06:37:33;7.60;;;4.55;;
980;SDS011;479;53.514;9.994;2024-01-11T06:40:02;6.20;;;4.43;;
980;SDS011;479;53.514;9.994;2024-01-11T06:42:33;7.50;;;4.10;;
980;SDS011;479;53.514;9.994;2024-01-11T06:45:00;6.10;;;3.65;;
980;SDS011;479;53.514;9.994;2024-01-11T06:47:28;8.82;;;4.97;;
980;SDS011;479;53.514;9.994;2024-01-11T06:49:55;9.15;;;5.25;;
980;SDS011;479;53.514;9.994;2024-01-11T06:52:22;6.32;;;3.95;;
980;SDS011;479;53.514;9.994;2024-01-11T06:54:52;10.07;;;5.57;;
980;SDS011;479;53.514;9.994;2024-01-11T06:57:19;8.30;;;3.65;;
980;SDS011;479;53.514;9.994;2024-01-11T06:59:49;6.22;;;3.28;;
980;SDS011;479;53.514;9.994;2024-01-11T07:02:18;7.55;;;4.50;;
980;SDS011;479;53.514;9.994;2024-01-11T07:04:45;11.85;;;5.05;;
980;SDS011;479;53.514;9.994;2024-01-11T07:07:13;7.57;;;5.05;;
980;SDS011;479;53.514;9.994;2024-01-11T07:09:40;9.05;;;3.90;;
980;SDS011;479;53.514;9.994;2024-01-11T07:12:07;8.13;;;4.75;;
980;SDS011;479;53.514;9.994;2024-01-11T07:14:35;9.05;;;4.07;;
980;SDS011;479;53.514;9.994;2024-01-11T07:17:03;7.68;;;4.50;;
980;SDS011;479;53.514;9.994;2024-01-11T07:19:30;8.52;;;3.70;;
980;SDS011;479;53.514;9.994;2024-01-11T07:21:58;6.07;;;4.53;;
980;SDS011;479;53.514;9.994;2024-01-11T07:24:24;9.77;;;3.78;;
980;SDS011;479;53.514;9.994;2024-01-11T07:26:51;6.28;;;4.18;;
980;SDS011;479;53.514;9.994;2024-01-11T07:29:19;7.85;;;4.55;;
980;SDS011;479;53.514;9.994;2024-01-11T07:31:46;8.60;;;3.20;;
980;SDS011;479;53.514;9.994;2024-01-11T07:34:14;6.38;;;3.95;;
980;SDS011;479;53.514;9.994;2024-01-11T07:36:43;7.85;;;4.22;;
980;SDS011;479;53.514;9.994;2024-01-11T07:39:10;13.80;;;4.15;;
980;SDS011;479;53.514;9.994;2024-01-11T07:41:41;12.27;;;5.97;;
980;SDS011;479;53.514;9.994;2024-01-11T07:44:08;6.68;;;4.35;;
980;SDS011;479;53.514;9.994;2024-01-11T07:46:35;10.93;;;6.18;;
980;SDS011;479;53.514;9.994;2024-01-11T07:49:02;13.02;;;6.45;;
980;SDS011;479;53.514;9.994;2024-01-11T07:51:31;10.95;;;5.18;;
980;SDS011;479;53.514;9.994;2024-01-11T07:54:00;10.88;;;5.70;;
980;SDS011;479;53.514;9.994;2024-01-11T07:56:27;11.25;;;5.93;;
980;SDS011;479;53.514;9.994;2024-01-11T07:58:55;8.18;;;4.90;;
980;SDS011;479;53.514;9.994;2024-01-11T08:01:24;12.32;;;6.65;;
980;SDS011;479;53.514;9.994;2024-01-11T08:03:55;13.20;;;7.22;;
980;SDS011;479;53.514;9.994;2024-01-11T08:06:22;16.33;;;5.53;;
980;SDS011;479;53.514;9.994;2024-01-11T08:08:50;10.05;;;5.32;;
980;SDS011;479;53.514;9.994;2024-01-11T08:11:18;12.05;;;5.55;;
980;SDS011;479;53.514;9.994;2024-01-11T08:13:45;7.50;;;5.43;;
980;SDS011;479;53.514;9.994;2024-01-11T08:16:15;9.73;;;5.38;;
980;SDS011;479;53.514;9.994;2024-01-11T08:18:43;21.98;;;6.10;;
980;SDS011;479;53.514;9.994;2024-01-11T08:21:11;10.38;;;6.22;;
980;SDS011;479;53.514;9.994;2024-01-11T08:23:39;7.82;;;4.05;;
980;SDS011;479;53.514;9.994;2024-01-11T08:26:12;10.57;;;5.68;;
980;SDS011;479;53.514;9.994;2024-01-11T08:28:39;10.00;;;4.35;;
980;SDS011;479;53.514;9.994;2024-01-11T08:31:06;13.52;;;5.78;;
980;SDS011;479;53.514;9.994;2024-01-11T08:33:34;7.63;;;3.55;;
980;SDS011;479;53.514;9.994;2024-01-11T08:36:02;12.82;;;5.13;;
980;SDS011;479;53.514;9.994;2024-01-11T08:38:29;12.55;;;4.95;;
980;SDS011;479;53.514;9.994;2024-01-11T08:40:57;9.50;;;5.25;;
980;SDS011;479;53.514;9.994;2024-01-11T08:43:26;12.07;;;5.20;;
980;SDS011;479;53.514;9.994;2024-01-11T08:45:53;14.57;;;6.88;;
980;SDS011;479;53.514;9.994;2024-01-11T08:48:20;11.20;;;5.57;;
980;SDS011;479;53.514;9.994;2024-01-11T08:50:47;15.40;;;5.95;;
980;SDS011;479;53.514;9.994;2024-01-11T08:53:14;10.20;;;6.07;;
980;SDS011;479;53.514;9.994;2024-01-11T08:55:42;9.18;;;5.45;;
980;SDS011;479;53.514;9.994;2024-01-11T08:58:09;9.90;;;6.35;;
980;SDS011;479;53.514;9.994;2024-01-11T09:00:38;9.85;;;4.90;;
980;SDS011;479;53.514;9.994;2024-01-11T09:03:05;7.05;;;4.60;;
980;SDS011;479;53.514;9.994;2024-01-11T09:05:32;8.35;;;4.13;;
980;SDS011;479;53.514;9.994;2024-01-11T09:07:59;8.38;;;5.07;;
980;SDS011;479;53.514;9.994;2024-01-11T09:10:26;10.52;;;5.72;;
980;SDS011;479;53.514;9.994;2024-01-11T09:12:54;12.88;;;6.60;;
980;SDS011;479;53.514;9.994;2024-01-11T09:15:21;18.95;;;7.57;;
980;SDS011;479;53.514;9.994;2024-01-11T09:17:49;13.07;;;6.35;;
980;SDS011;479;53.514;9.994;2024-01-11T09:20:16;16.30;;;7.20;;
980;SDS011;479;53.514;9.994;2024-01-11T09:22:44;20.27;;;7.90;;
980;SDS011;479;53.514;9.994;2024-01-11T09:25:11;10.13;;;6.50;;
980;SDS011;479;53.514;9.994;2024-01-11T09:27:38;9.00;;;4.63;;
980;SDS011;479;53.514;9.994;2024-01-11T09:30:06;15.85;;;5.35;;
980;SDS011;479;53.514;9.994;2024-01-11T09:32:34;13.90;;;7.63;;
980;SDS011;479;53.514;9.994;2024-01-11T09:35:03;9.25;;;4.50;;
980;SDS011;479;53.514;9.994;2024-01-11T09:37:30;14.80;;;5.93;;
980;SDS011;479;53.514;9.994;2024-01-11T09:39:57;9.93;;;5.13;;
980;SDS011;479;53.514;9.994;2024-01-11T09:42:26;12.68;;;5.05;;
980;SDS011;479;53.514;9.994;2024-01-11T09:44:53;10.75;;;3.83;;
980;SDS011;479;53.514;9.994;2024-01-11T09:47:20;8.40;;;4.75;;
980;SDS011;479;53.514;9.994;2024-01-11T09:49:48;11.80;;;4.93;;
980;SDS011;479;53.514;9.994;2024-01-11T09:52:18;8.77;;;4.55;;
980;SDS011;479;53.514;9.994;2024-01-11T09:54:47;7.10;;;4.45;;
980;SDS011;479;53.514;9.994;2024-01-11T09:57:14;11.32;;;5.45;;
980;SDS011;479;53.514;9.994;2024-01-11T09:59:47;8.70;;;3.63;;
980;SDS011;479;53.514;9.994;2024-01-11T10:02:16;14.35;;;6.72;;
980;SDS011;479;53.514;9.994;2024-01-11T10:04:44;11.15;;;6.80;;
980;SDS011;479;53.514;9.994;2024-01-11T10:07:10;10.50;;;4.50;;
980;SDS011;479;53.514;9.994;2024-01-11T10:09:40;8.23;;;5.55;;
980;SDS011;479;53.514;9.994;2024-01-11T10:12:07;9.13;;;5.22;;
980;SDS011;479;53.514;9.994;2024-01-11T10:14:35;16.38;;;5.38;;
980;SDS011;479;53.514;9.994;2024-01-11T10:17:03;11.50;;;7.03;;
980;SDS011;479;53.514;9.994;2024-01-11T10:19:31;16.30;;;6.85;;
980;SDS011;479;53.514;9.994;2024-01-11T10:21:58;13.73;;;8.40;;
980;SDS011;479;53.514;9.994;2024-01-11T10:24:25;16.15;;;7.75;;
980;SDS011;479;53.514;9.994;2024-01-11T10:26:56;9.85;;;5.80;;
980;SDS011;479;53.514;9.994;2024-01-11T10:29:27;21.42;;;9.05;;
980;SDS011;479;53.514;9.994;2024-01-11T10:31:56;16.52;;;8.10;;
980;SDS011;479;53.514;9.994;2024-01-11T10:34:23;16.70;;;10.00;;
980;SDS011;479;53.514;9.994;2024-01-11T10:36:50;20.13;;;11.10;;
980;SDS011;479;53.514;9.994;2024-01-11T10:39:17;17.23;;;8.60;;
980;SDS011;479;53.514;9.994;2024-01-11T10:41:49;13.48;;;8.82;;
980;SDS011;479;53.514;9.994;2024-01-11T10:44:19;15.65;;;7.57;;
980;SDS011;479;53.514;9.994;2024-01-11T10:46:47;16.60;;;9.70;;
980;SDS011;479;53.514;9.994;2024-01-11T10:49:17;18.38;;;8.57;;
980;SDS011;479;53.514;9.994;2024-01-11T10:51:45;19.55;;;9.30;;
980;SDS011;479;53.514;9.994;2024-01-11T10:54:16;22.13;;;9.98;;
980;SDS011;479;53.514;9.994;2024-01-11T10:56:45;23.08;;;9.48;;
980;SDS011;479;53.514;9.994;2024-01-11T10:59:13;17.63;;;9.00;;
980;SDS011;479;53.514;9.994;2024-01-11T11:01:43;24.63;;;11.25;;
980;SDS011;479;53.514;9.994;2024-01-11T11:04:11;24.70;;;10.13;;
980;SDS011;479;53.514;9.994;2024-01-11T11:06:41;25.10;;;13.85;;
980;SDS011;479;53.514;9.994;2024-01-11T11:09:10;28.80;;;12.75;;
980;SDS011;479;53.514;9.994;2024-01-11T11:11:39;21.52;;;11.27;;
980;SDS011;479;53.514;9.994;2024-01-11T11:14:07;22.48;;;11.20;;
980;SDS011;479;53.514;9.994;2024-01-11T11:16:36;21.27;;;9.48;;
980;SDS011;479;53.514;9.994;2024-01-11T11:19:05;26.90;;;12.38;;
980;SDS011;479;53.514;9.994;2024-01-11T11:21:34;25.60;;;12.70;;
980;SDS011;479;53.514;9.994;2024-01-11T11:24:08;20.17;;;10.00;;
980;SDS011;479;53.514;9.994;2024-01-11T11:26:37;22.85;;;10.90;;
980;SDS011;479;53.514;9.994;2024-01-11T11:29:04;27.83;;;10.77;;
980;SDS011;479;53.514;9.994;2024-01-11T11:31:34;23.00;;;11.32;;
980;SDS011;479;53.514;9.994;2024-01-11T11:34:04;22.48;;;11.77;;
980;SDS011;479;53.514;9.994;2024-01-11T11:36:33;16.52;;;9.80;;
980;SDS011;479;53.514;9.994;2024-01-11T11:39:00;18.92;;;10.00;;
980;SDS011;479;53.514;9.994;2024-01-11T11:41:30;23.67;;;11.50;;
980;SDS011;479;53.514;9.994;2024-01-11T11:44:00;26.23;;;12.35;;
980;SDS011;479;53.514;9.994;2024-01-11T11:46:28;26.48;;;10.40;;
980;SDS011;479;53.514;9.994;2024-01-11T11:48:56;19.20;;;10.48;;
980;SDS011;479;53.514;9.994;2024-01-11T11:51:26;19.83;;;11.18;;
980;SDS011;479;53.514;9.994;2024-01-11T11:53:53;18.25;;;10.68;;
980;SDS011;479;53.514;9.994;2024-01-11T11:56:20;17.50;;;9.85;;
980;SDS011;479;53.514;9.994;2024-01-11T11:58:48;22.45;;;11.75;;
980;SDS011;479;53.514;9.994;2024-01-11T12:01:17;22.02;;;10.27;;
980;SDS011;479;53.514;9.994;2024-01-11T12:03:44;26.33;;;12.13;;
980;SDS011;479;53.514;9.994;2024-01-11T12:06:15;23.70;;;10.23;;
980;SDS011;479;53.514;9.994;2024-01-11T12:08:44;21.23;;;12.30;;
980;SDS011;479;53.514;9.994;2024-01-11T12:11:15;21.55;;;10.10;;
980;SDS011;479;53.514;9.994;2024-01-11T12:13:44;20.58;;;10.40;;
980;SDS011;479;53.514;9.994;2024-01-11T12:16:12;20.10;;;9.95;;
980;SDS011;479;53.514;9.994;2024-01-11T12:18:39;21.40;;;11.00;;
980;SDS011;479;53.514;9.994;2024-01-11T12:21:06;22.88;;;11.20;;
980;SDS011;479;53.514;9.994;2024-01-11T12:23:34;19.73;;;9.75;;
980;SDS011;479;53.514;9.994;2024-01-11T12:26:02;27.52;;;12.63;;
980;SDS011;479;53.514;9.994;2024-01-11T12:28:33;23.45;;;9.77;;
980;SDS011;479;53.514;9.994;2024-01-11T12:31:00;20.83;;;9.77;;
980;SDS011;479;53.514;9.994;2024-01-11T12:33:26;23.50;;;8.52;;
980;SDS011;479;53.514;9.994;2024-01-11T12:35:54;22.40;;;10.43;;
980;SDS011;479;53.514;9.994;2024-01-11T12:38:21;18.45;;;9.55;;
980;SDS011;479;53.514;9.994;2024-01-11T12:40:48;16.48;;;9.55;;
980;SDS011;479;53.514;9.994;2024-01-11T12:43:16;18.30;;;9.73;;
980;SDS011;479;53.514;9.994;2024-01-11T12:45:43;22.42;;;10.77;;
980;SDS011;479;53.514;9.994;2024-01-11T12:48:10;16.65;;;9.60;;
980;SDS011;479;53.514;9.994;2024-01-11T12:50:40;18.45;;;10.25;;
980;SDS011;479;53.514;9.994;2024-01-11T12:53:08;22.88;;;10.13;;
980;SDS011;479;53.514;9.994;2024-01-11T12:55:37;18.98;;;10.65;;
980;SDS011;479;53.514;9.994;2024-01-11T12:58:05;19.88;;;9.98;;
980;SDS011;479;53.514;9.994;2024-01-11T13:00:33;24.23;;;9.32;;
980;SDS011;479;53.514;9.994;2024-01-11T13:03:01;25.02;;;12.65;;
980;SDS011;479;53.514;9.994;2024-01-11T13:05:29;22.23;;;10.75;;
980;SDS011;479;53.514;9.994;2024-01-11T13:08:00;19.65;;;10.43;;
980;SDS011;479;53.514;9.994;2024-01-11T13:10:29;24.98;;;10.20;;
980;SDS011;479;53.514;9.994;2024-01-11T13:12:58;23.58;;;10.63;;
980;SDS011;479;53.514;9.994;2024-01-11T13:15:25;19.67;;;9.02;;
980;SDS011;479;53.514;9.994;2024-01-11T13:17:55;18.17;;;9.77;;
980;SDS011;479;53.514;9.994;2024-01-11T13:20:22;24.40;;;11.00;;
980;SDS011;479;53.514;9.994;2024-01-11T13:22:53;26.52;;;11.50;;
980;SDS011;479;53.514;9.994;2024-01-11T13:25:35;23.95;;;10.88;;
980;SDS011;479;53.514;9.994;2024-01-11T13:28:02;27.55;;;12.95;;
980;SDS011;479;53.514;9.994;2024-01-11T13:30:29;24.90;;;13.77;;
980;SDS011;479;53.514;9.994;2024-01-11T13:32:57;25.98;;;11.88;;
980;SDS011;479;53.514;9.994;2024-01-11T13:35:24;27.58;;;12.30;;
980;SDS011;479;53.514;9.994;2024-01-11T13:37:51;23.23;;;11.70;;
980;SDS011;479;53.514;9.994;2024-01-11T13:40:18;24.45;;;11.48;;
980;SDS011;479;53.514;9.994;2024-01-11T13:42:45;23.73;;;12.43;;
980;SDS011;479;53.514;9.994;2024-01-11T13:45:12;17.75;;;10.45;;
980;SDS011;479;53.514;9.994;2024-01-11T13:47:39;27.25;;;10.55;;
980;SDS011;479;53.514;9.994;2024-01-11T13:50:12;22.92;;;12.02;;
980;SDS011;479;53.514;9.994;2024-01-11T13:52:40;24.27;;;11.13;;
980;SDS011;479;53.514;9.994;2024-01-11T13:55:07;25.15;;;10.38;;
980;SDS011;479;53.514;9.994;2024-01-11T13:57:35;22.75;;;11.35;;
980;SDS011;479;53.514;9.994;2024-01-11T14:00:06;13.52;;;7.97;;
980;SDS011;479;53.514;9.994;2024-01-11T14:02:36;20.60;;;9.63;;
980;SDS011;479;53.514;9.994;2024-01-11T14:05:05;22.63;;;10.93;;
980;SDS011;479;53.514;9.994;2024-01-11T14:07:36;14.93;;;8.93;;
980;SDS011;479;53.514;9.994;2024-01-11T14:10:04;25.27;;;10.57;;
980;SDS011;479;53.514;9.994;2024-01-11T14:12:33;22.00;;;9.23;;
980;SDS011;479;53.514;9.994;2024-01-11T14:15:01;22.58;;;9.88;;
980;SDS011;479;53.514;9.994;2024-01-11T14:17:29;16.63;;;8.75;;
980;SDS011;479;53.514;9.994;2024-01-11T14:19:56;16.20;;;9.30;;
980;SDS011;479;53.514;9.994;2024-01-11T14:22:23;16.50;;;8.60;;
980;SDS011;479;53.514;9.994;2024-01-11T14:24:52;19.15;;;9.10;;
980;SDS011;479;53.514;9.994;2024-01-11T14:27:19;20.63;;;10.57;;
980;SDS011;479;53.514;9.994;2024-01-11T14:29:46;22.02;;;10.35;;
980;SDS011;479;53.514;9.994;2024-01-11T14:32:13;25.70;;;10.93;;
980;SDS011;479;53.514;9.994;2024-01-11T14:34:41;30.35;;;9.43;;
980;SDS011;479;53.514;9.994;2024-01-11T14:37:09;18.83;;;10.52;;
980;SDS011;479;53.514;9.994;2024-01-11T14:39:39;21.52;;;9.55;;
980;SDS011;479;53.514;9.994;2024-01-11T14:42:07;18.88;;;9.23;;
980;SDS011;479;53.514;9.994;2024-01-11T14:44:35;19.90;;;10.55;;
980;SDS011;479;53.514;9.994;2024-01-11T14:47:02;28.23;;;13.40;;
980;SDS011;479;53.514;9.994;2024-01-11T14:49:29;22.60;;;10.45;;
980;SDS011;479;53.514;9.994;2024-01-11T14:51:56;25.58;;;12.73;;
980;SDS011;479;53.514;9.994;2024-01-11T14:54:23;16.48;;;8.73;;
980;SDS011;479;53.514;9.994;2024-01-11T14:56:50;23.83;;;11.85;;
980;SDS011;479;53.514;9.994;2024-01-11T14:59:18;20.75;;;9.55;;
980;SDS011;479;53.514;9.994;2024-01-11T15:01:45;22.92;;;9.65;;
980;SDS011;479;53.514;9.994;2024-01-11T15:04:12;20.58;;;9.30;;
980;SDS011;479;53.514;9.994;2024-01-11T15:06:39;21.60;;;10.30;;
980;SDS011;479;53.514;9.994;2024-01-11T15:09:06;20.70;;;10.57;;
980;SDS011;479;53.514;9.994;2024-01-11T15:11:37;22.13;;;9.68;;
980;SDS011;479;53.514;9.994;2024-01-11T15:14:05;14.02;;;7.75;;
980;SDS011;479;53.514;9.994;2024-01-11T15:16:35;20.73;;;9.55;;
980;SDS011;479;53.514;9.994;2024-01-11T15:19:03;22.55;;;10.95;;
980;SDS011;479;53.514;9.994;2024-01-11T15:21:30;15.20;;;7.72;;
980;SDS011;479;53.514;9.994;2024-01-11T15:23:57;22.08;;;9.45;;
980;SDS011;479;53.514;9.994;2024-01-11T15:26:25;20.92;;;12.10;;
980;SDS011;479;53.514;9.994;2024-01-11T15:28:52;19.58;;;12.30;;
980;SDS011;479;53.514;9.994;2024-01-11T15:31:20;31.38;;;12.68;;